createdAt,value
2023-04-27T00:00:31.189Z,5.50
2023-04-27T00:02:57.708Z,5.05
2023-04-27T00:05:24.317Z,3.72
2023-04-27T00:07:50.707Z,6.22
2023-04-27T00:10:17.033Z,5.47
2023-04-27T00:12:43.328Z,5.40
2023-04-27T00:15:10.370Z,5.25
2023-04-27T00:17:36.701Z,4.60
2023-04-27T00:20:03.180Z,3.88
2023-04-27T00:22:29.486Z,3.60
2023-04-27T00:24:55.753Z,4.97
2023-04-27T00:27:22.060Z,4.30
2023-04-27T00:29:48.370Z,5.75
2023-04-27T00:32:14.707Z,5.30
2023-04-27T00:34:41.036Z,3.53
2023-04-27T00:37:07.308Z,5.05
2023-04-27T00:39:34.375Z,4.85
2023-04-27T00:42:00.775Z,7.25
2023-04-27T00:44:27.765Z,3.45
2023-04-27T00:46:55.154Z,2.90
2023-04-27T00:51:48.397Z,3.85
2023-04-27T00:54:20.431Z,3.95
2023-04-27T00:56:50.788Z,4.38
2023-04-27T00:59:18.261Z,6.68
2023-04-27T01:01:46.021Z,4.97
2023-04-27T01:04:12.719Z,4.85
2023-04-27T01:06:39.117Z,3.58
2023-04-27T01:09:05.949Z,6.88
2023-04-27T01:11:33.223Z,3.20
2023-04-27T01:14:04.132Z,6.47
2023-04-27T01:16:31.392Z,6.10
2023-04-27T01:21:24.344Z,3.78
2023-04-27T01:23:50.671Z,4.07
2023-04-27T01:26:16.998Z,4.93
2023-04-27T01:28:43.345Z,5.40
2023-04-27T01:31:12.969Z,4.63
2023-04-27T01:33:40.186Z,3.67
2023-04-27T01:36:07.332Z,4.47
2023-04-27T01:38:34.269Z,4.53
2023-04-27T01:41:02.968Z,4.97
2023-04-27T01:43:30.015Z,5.78
2023-04-27T01:45:56.344Z,5.60
2023-04-27T01:48:22.830Z,7.28
2023-04-27T01:50:49.129Z,3.30
2023-04-27T01:53:15.419Z,4.68
2023-04-27T01:55:41.758Z,3.88
2023-04-27T01:58:08.062Z,4.72
2023-04-27T02:00:34.358Z,5.82
2023-04-27T02:03:00.760Z,6.65
2023-04-27T02:05:27.163Z,4.00
2023-04-27T02:07:53.499Z,6.93
2023-04-27T02:10:19.805Z,6.55
2023-04-27T02:12:46.126Z,3.47
2023-04-27T02:15:12.490Z,6.20
2023-04-27T02:17:38.809Z,4.38
2023-04-27T02:20:06.253Z,3.97
2023-04-27T02:22:32.633Z,5.90
2023-04-27T02:25:02.135Z,5.50
2023-04-27T02:27:28.418Z,6.00
2023-04-27T02:29:55.284Z,3.75
2023-04-27T02:32:22.501Z,4.25
2023-04-27T02:34:48.806Z,4.20
2023-04-27T02:37:15.125Z,6.32
2023-04-27T02:39:41.397Z,5.13
2023-04-27T02:42:07.738Z,5.50
2023-04-27T02:44:34.019Z,4.68
2023-04-27T02:47:00.409Z,4.13
2023-04-27T02:49:26.825Z,4.15
2023-04-27T02:51:53.106Z,5.47
2023-04-27T02:54:19.383Z,6.22
2023-04-27T02:56:45.689Z,3.83
2023-04-27T02:59:12.312Z,6.45
2023-04-27T03:01:38.901Z,9.98
2023-04-27T03:04:05.586Z,4.75
2023-04-27T03:06:32.109Z,4.32
2023-04-27T03:08:58.409Z,4.65
2023-04-27T03:11:24.733Z,6.47
2023-04-27T03:13:51.053Z,5.20
2023-04-27T03:16:17.384Z,3.72
2023-04-27T03:18:43.771Z,5.00
2023-04-27T03:21:11.381Z,4.97
2023-04-27T03:23:37.909Z,5.82
2023-04-27T03:26:11.225Z,6.32
2023-04-27T03:28:38.236Z,4.30
2023-04-27T03:31:05.966Z,4.32
2023-04-27T03:33:32.678Z,4.00
2023-04-27T03:35:59.657Z,6.00
2023-04-27T03:38:26.882Z,5.50
2023-04-27T03:40:54.283Z,7.97
2023-04-27T03:45:47.919Z,9.32
2023-04-27T03:48:15.177Z,5.32
2023-04-27T03:50:42.084Z,7.57
2023-04-27T03:53:09.047Z,5.97
2023-04-27T03:55:39.697Z,8.30
2023-04-27T03:58:06.610Z,4.82
2023-04-27T04:00:37.006Z,6.30
2023-04-27T04:03:04.511Z,5.05
2023-04-27T04:05:31.052Z,5.68
2023-04-27T04:07:57.813Z,5.68
2023-04-27T04:10:24.806Z,6.32
2023-04-27T04:12:52.446Z,4.38
2023-04-27T04:15:18.944Z,3.40
2023-04-27T04:17:45.587Z,5.10
2023-04-27T04:20:12.116Z,4.68
2023-04-27T04:22:38.700Z,4.95
2023-04-27T04:25:05.929Z,5.93
2023-04-27T04:27:32.550Z,3.80
2023-04-27T04:29:59.230Z,4.95
2023-04-27T04:32:26.567Z,6.07
2023-04-27T04:37:19.064Z,6.20
2023-04-27T04:39:45.472Z,5.13
2023-04-27T04:42:11.756Z,5.82
2023-04-27T04:44:38.063Z,3.28
2023-04-27T04:47:05.018Z,5.60
2023-04-27T04:49:31.354Z,5.28
2023-04-27T04:51:57.833Z,7.90
2023-04-27T04:54:24.461Z,4.93
2023-04-27T04:56:50.764Z,5.25
2023-04-27T04:59:17.273Z,5.38
2023-04-27T05:01:43.643Z,7.47
2023-04-27T05:04:10.228Z,4.05
2023-04-27T05:06:36.645Z,6.80
2023-04-27T05:09:03.036Z,4.53
2023-04-27T05:11:29.337Z,3.95
2023-04-27T05:13:55.651Z,4.78
2023-04-27T05:16:22.088Z,4.57
2023-04-27T05:18:48.444Z,4.80
2023-04-27T05:21:17.827Z,4.20
2023-04-27T05:23:44.124Z,4.50
2023-04-27T05:26:18.027Z,5.53
2023-04-27T05:28:44.966Z,6.70
2023-04-27T05:31:11.321Z,3.67
2023-04-27T05:33:37.675Z,6.22
2023-04-27T05:36:04.362Z,4.30
2023-04-27T05:38:30.690Z,7.13
2023-04-27T05:40:57.709Z,6.50
2023-04-27T05:43:24.803Z,7.43
2023-04-27T05:45:51.945Z,7.07
2023-04-27T05:48:19.234Z,4.47
2023-04-27T05:50:45.645Z,5.43
2023-04-27T05:53:12.042Z,6.00
2023-04-27T05:55:38.402Z,4.03
2023-04-27T05:58:08.576Z,8.35
2023-04-27T06:00:35.667Z,9.73
2023-04-27T06:03:02.196Z,3.45
2023-04-27T06:05:28.613Z,6.20
2023-04-27T06:07:54.961Z,9.52
2023-04-27T06:10:21.374Z,8.07
2023-04-27T06:12:47.693Z,5.88
2023-04-27T06:15:14.039Z,5.68
2023-04-27T06:17:41.196Z,4.63
2023-04-27T06:20:07.999Z,4.90
2023-04-27T06:22:34.425Z,3.90
2023-04-27T06:25:00.726Z,3.45
2023-04-27T06:27:27.023Z,4.07
2023-04-27T06:29:53.342Z,5.63
2023-04-27T06:32:19.708Z,5.72
2023-04-27T06:34:47.272Z,5.95
2023-04-27T06:37:13.602Z,5.22
2023-04-27T06:39:39.894Z,4.45
2023-04-27T06:42:06.188Z,4.35
2023-04-27T06:44:32.525Z,5.35
2023-04-27T06:46:58.833Z,6.53
2023-04-27T06:49:25.127Z,5.28
2023-04-27T06:51:51.434Z,4.45
2023-04-27T06:54:17.739Z,4.63
2023-04-27T06:56:44.140Z,9.18
2023-04-27T06:59:10.449Z,4.65
2023-04-27T07:01:37.472Z,6.68
2023-04-27T07:04:05.208Z,4.18
2023-04-27T07:06:31.939Z,3.65
2023-04-27T07:08:58.570Z,4.57
2023-04-27T07:11:24.988Z,5.63
2023-04-27T07:13:51.278Z,4.43
2023-04-27T07:16:17.759Z,4.25
2023-04-27T07:18:44.107Z,4.38
2023-04-27T07:21:10.945Z,3.38
2023-04-27T07:23:37.244Z,5.78
2023-04-27T07:26:03.557Z,4.68
2023-04-27T07:28:29.944Z,5.82
2023-04-27T07:30:56.262Z,6.80
2023-04-27T07:33:22.584Z,4.18
2023-04-27T07:35:48.925Z,6.15
2023-04-27T07:38:15.231Z,3.33
2023-04-27T07:40:43.759Z,4.88
2023-04-27T07:43:11.031Z,3.78
2023-04-27T07:45:37.355Z,3.42
2023-04-27T07:48:03.789Z,4.55
2023-04-27T07:50:31.243Z,4.78
2023-04-27T07:52:57.853Z,5.25
2023-04-27T07:55:24.723Z,4.82
2023-04-27T07:57:53.408Z,6.88
2023-04-27T08:00:20.422Z,7.18
2023-04-27T08:02:46.926Z,4.50
2023-04-27T08:05:13.658Z,4.15
2023-04-27T08:07:44.371Z,5.18
2023-04-27T08:10:11.390Z,7.30
2023-04-27T08:12:37.732Z,4.00
2023-04-27T08:15:06.055Z,5.07
2023-04-27T08:17:32.362Z,4.65
2023-04-27T08:19:58.703Z,4.20
2023-04-27T08:22:24.983Z,5.22
2023-04-27T08:24:51.357Z,4.03
2023-04-27T08:27:17.671Z,3.85
2023-04-27T08:29:47.803Z,6.97
2023-04-27T08:32:14.783Z,4.72
2023-04-27T08:34:41.204Z,3.13
2023-04-27T08:37:08.208Z,5.15
2023-04-27T08:39:34.520Z,4.88
2023-04-27T08:42:00.873Z,3.92
2023-04-27T08:44:27.364Z,5.82
2023-04-27T08:46:53.884Z,2.92
2023-04-27T08:49:20.530Z,4.03
2023-04-27T08:51:47.030Z,3.53
2023-04-27T08:54:13.330Z,5.75
2023-04-27T08:56:39.669Z,4.53
2023-04-27T08:59:14.485Z,4.32
2023-04-27T09:01:48.979Z,6.05
2023-04-27T09:04:16.140Z,4.03
2023-04-27T09:06:42.677Z,3.92
2023-04-27T09:09:09.018Z,3.90
2023-04-27T09:11:37.260Z,3.50
2023-04-27T09:14:19.929Z,4.15
2023-04-27T09:16:56.671Z,3.25
2023-04-27T09:19:28.232Z,3.92
2023-04-27T09:22:09.025Z,3.10
2023-04-27T09:24:35.527Z,3.00
2023-04-27T09:27:01.961Z,5.35
2023-04-27T09:29:38.478Z,3.85
2023-04-27T09:32:18.638Z,3.92
2023-04-27T09:34:45.175Z,3.97
2023-04-27T09:37:11.959Z,4.30
2023-04-27T09:39:38.684Z,4.43
2023-04-27T09:42:05.575Z,3.80
2023-04-27T09:44:32.838Z,3.95
2023-04-27T09:49:27.542Z,4.55
2023-04-27T09:51:55.853Z,4.53
2023-04-27T09:54:25.808Z,5.38
2023-04-27T09:57:21.007Z,5.03
2023-04-27T09:59:59.157Z,4.60
2023-04-27T10:02:29.585Z,5.53
2023-04-27T10:05:34.811Z,4.50
2023-04-27T10:08:03.808Z,3.78
2023-04-27T10:10:30.149Z,4.63
2023-04-27T10:13:00.717Z,4.82
2023-04-27T10:15:28.697Z,4.07
2023-04-27T10:17:55.501Z,4.22
2023-04-27T10:20:32.553Z,5.18
2023-04-27T10:22:59.781Z,5.55
2023-04-27T10:27:54.521Z,3.60
2023-04-27T10:30:26.624Z,3.78
2023-04-27T10:32:57.806Z,4.45
2023-04-27T10:35:35.808Z,3.05
2023-04-27T10:38:22.289Z,5.97
2023-04-27T10:40:56.610Z,5.30
2023-04-27T10:43:27.906Z,4.10
2023-04-27T10:45:54.888Z,3.05
2023-04-27T10:48:21.637Z,4.70
2023-04-27T10:50:51.097Z,3.03
2023-04-27T10:53:17.446Z,3.40
2023-04-27T10:55:43.807Z,3.80
2023-04-27T10:58:10.110Z,5.18
2023-04-27T11:00:39.462Z,4.95
2023-04-27T11:03:17.433Z,3.58
2023-04-27T11:05:45.974Z,3.10
2023-04-27T11:08:14.990Z,6.32
2023-04-27T11:10:47.342Z,4.18
2023-04-27T11:13:15.705Z,3.63
2023-04-27T11:16:04.496Z,2.35
2023-04-27T11:18:32.215Z,2.38
2023-04-27T11:21:09.922Z,3.60
2023-04-27T11:23:37.005Z,2.95
2023-04-27T11:28:38.733Z,3.80
2023-04-27T11:31:05.822Z,5.68
2023-04-27T11:33:32.340Z,2.33
2023-04-27T11:35:59.764Z,2.63
2023-04-27T11:38:32.500Z,3.60
2023-04-27T11:41:01.669Z,2.92
2023-04-27T11:43:28.209Z,2.92
2023-04-27T11:45:55.580Z,6.35
2023-04-27T11:48:27.107Z,4.07
2023-04-27T11:50:53.452Z,4.07
2023-04-27T11:53:33.425Z,2.60
2023-04-27T11:56:04.222Z,3.65
2023-04-27T11:58:34.051Z,4.55
2023-04-27T12:01:00.536Z,7.53
2023-04-27T12:03:28.316Z,5.68
2023-04-27T12:05:54.969Z,4.70
2023-04-27T12:08:21.337Z,4.40
2023-04-27T12:10:47.691Z,4.00
2023-04-27T12:13:14.581Z,3.13
2023-04-27T12:15:41.815Z,2.70
2023-04-27T12:18:08.822Z,3.30
2023-04-27T12:20:35.624Z,3.38
2023-04-27T12:23:02.437Z,3.20
2023-04-27T12:25:28.771Z,4.22
2023-04-27T12:27:55.119Z,5.65
2023-04-27T12:30:24.072Z,3.17
2023-04-27T12:32:50.430Z,5.18
2023-04-27T12:35:16.806Z,4.65
2023-04-27T12:37:43.236Z,7.38
2023-04-27T12:40:09.986Z,5.18
2023-04-27T12:42:36.284Z,4.05
2023-04-27T12:45:02.909Z,3.55
2023-04-27T12:47:46.530Z,3.13
2023-04-27T12:50:15.531Z,5.13
2023-04-27T12:52:41.868Z,4.82
2023-04-27T12:55:18.074Z,2.80
2023-04-27T12:57:51.366Z,3.95
2023-04-27T13:00:18.063Z,4.38
2023-04-27T13:02:44.552Z,3.00
2023-04-27T13:05:10.954Z,6.00
2023-04-27T13:07:37.520Z,2.58
2023-04-27T13:10:04.179Z,4.13
2023-04-27T13:12:30.554Z,2.60
2023-04-27T13:14:56.868Z,4.07
2023-04-27T13:17:23.170Z,3.03
2023-04-27T13:19:49.465Z,6.10
2023-04-27T13:22:15.775Z,5.40
2023-04-27T13:24:42.077Z,2.75
2023-04-27T13:27:08.412Z,3.42
2023-04-27T13:29:34.705Z,3.63
2023-04-27T13:32:01.111Z,2.58
2023-04-27T13:34:27.446Z,3.58
2023-04-27T13:36:53.766Z,2.72
2023-04-27T13:39:20.092Z,3.13
2023-04-27T13:41:46.411Z,3.85
2023-04-27T13:44:12.816Z,3.55
2023-04-27T13:46:39.285Z,3.70
2023-04-27T13:49:05.626Z,4.65
2023-04-27T13:51:33.443Z,4.47
2023-04-27T13:54:00.972Z,3.63
2023-04-27T13:56:27.263Z,5.05
2023-04-27T13:58:53.567Z,4.85
2023-04-27T14:01:19.926Z,3.60
2023-04-27T14:03:46.512Z,2.40
2023-04-27T14:06:13.001Z,3.17
2023-04-27T14:08:39.284Z,2.00
2023-04-27T14:11:05.620Z,3.92
2023-04-27T14:13:31.942Z,3.30
2023-04-27T14:15:58.233Z,3.13
2023-04-27T14:18:31.913Z,2.75
2023-04-27T14:20:58.856Z,3.47
2023-04-27T14:23:25.250Z,2.50
2023-04-27T14:25:51.544Z,4.18
2023-04-27T14:28:17.858Z,2.92
2023-04-27T14:30:44.237Z,3.78
2023-04-27T14:33:10.655Z,3.17
2023-04-27T14:35:37.077Z,3.70
2023-04-27T14:38:03.900Z,6.25
2023-04-27T14:40:31.410Z,4.28
2023-04-27T14:42:58.576Z,3.90
2023-04-27T14:47:57.530Z,2.30
2023-04-27T14:50:23.977Z,3.00
2023-04-27T14:52:50.347Z,4.22
2023-04-27T14:55:16.674Z,2.78
2023-04-27T14:57:42.987Z,2.67
2023-04-27T15:00:10.181Z,3.15
2023-04-27T15:02:37.785Z,5.68
2023-04-27T15:05:05.201Z,8.63
2023-04-27T15:07:31.558Z,12.27
2023-04-27T15:09:57.852Z,13.35
2023-04-27T15:12:24.200Z,4.07
2023-04-27T15:14:50.564Z,2.80
2023-04-27T15:17:17.043Z,4.13
2023-04-27T15:19:43.770Z,4.47
2023-04-27T15:22:11.202Z,2.75
2023-04-27T15:24:37.498Z,3.33
2023-04-27T15:27:03.806Z,2.70
2023-04-27T15:29:30.421Z,3.13
2023-04-27T15:31:56.785Z,2.58
2023-04-27T15:34:23.098Z,3.30
2023-04-27T15:36:49.438Z,3.75
2023-04-27T15:39:15.984Z,4.38
2023-04-27T15:41:42.448Z,3.08
2023-04-27T15:44:08.778Z,3.45
2023-04-27T15:46:36.430Z,3.17
2023-04-27T15:49:02.830Z,2.70
2023-04-27T15:51:29.169Z,2.30
2023-04-27T15:53:55.506Z,1.70
2023-04-27T15:56:21.833Z,5.28
2023-04-27T15:58:48.161Z,3.05
2023-04-27T16:01:14.483Z,3.28
2023-04-27T16:03:40.888Z,4.05
2023-04-27T16:06:07.561Z,4.28
2023-04-27T16:08:33.893Z,3.30
2023-04-27T16:11:00.521Z,3.13
2023-04-27T16:13:26.868Z,2.42
2023-04-27T16:15:53.163Z,2.72
2023-04-27T16:18:19.482Z,3.63
2023-04-27T16:20:45.784Z,3.80
2023-04-27T16:23:12.123Z,3.22
2023-04-27T16:25:41.149Z,3.72
2023-04-27T16:28:07.714Z,4.35
2023-04-27T16:30:34.046Z,5.60
2023-04-27T16:33:00.551Z,3.75
2023-04-27T16:35:27.154Z,4.65
2023-04-27T16:37:53.451Z,6.72
2023-04-27T16:40:20.439Z,8.48
2023-04-27T16:42:47.173Z,3.35
2023-04-27T16:45:13.481Z,2.38
2023-04-27T16:47:39.816Z,4.47
2023-04-27T16:50:06.454Z,8.60
2023-04-27T16:52:32.815Z,3.92
2023-04-27T16:55:07.291Z,4.85
2023-04-27T16:57:33.641Z,3.92
2023-04-27T17:00:00.544Z,5.60
2023-04-27T17:02:27.109Z,3.45
2023-04-27T17:04:54.521Z,3.35
2023-04-27T17:07:20.978Z,3.17
2023-04-27T17:09:47.494Z,3.33
2023-04-27T17:12:13.836Z,3.13
2023-04-27T17:14:40.241Z,4.05
2023-04-27T17:17:06.653Z,2.58
2023-04-27T17:19:33.153Z,2.70
2023-04-27T17:22:01.874Z,3.55
2023-04-27T17:24:28.183Z,2.25
2023-04-27T17:26:54.634Z,2.95
2023-04-27T17:29:20.950Z,5.25
2023-04-27T17:31:47.323Z,2.45
2023-04-27T17:34:13.726Z,3.28
2023-04-27T17:36:40.044Z,5.25
2023-04-27T17:39:06.406Z,4.43
2023-04-27T17:41:33.818Z,3.42
2023-04-27T17:44:02.862Z,3.83
2023-04-27T17:46:29.294Z,3.53
2023-04-27T17:48:55.668Z,4.05
2023-04-27T17:51:22.016Z,4.65
2023-04-27T17:53:48.351Z,3.70
2023-04-27T17:56:14.757Z,4.43
2023-04-27T17:58:41.281Z,4.82
2023-04-27T18:01:07.677Z,2.55
2023-04-27T18:03:34.158Z,2.72
2023-04-27T18:06:00.590Z,3.40
2023-04-27T18:08:26.960Z,4.60
2023-04-27T18:10:53.319Z,3.97
2023-04-27T18:13:22.263Z,4.30
2023-04-27T18:15:48.576Z,4.30
2023-04-27T18:18:14.964Z,2.95
2023-04-27T18:20:41.306Z,7.30
2023-04-27T18:23:07.587Z,8.13
2023-04-27T18:25:34.209Z,6.25
2023-04-27T18:28:00.652Z,4.50
2023-04-27T18:30:26.978Z,7.22
2023-04-27T18:32:56.508Z,7.15
2023-04-27T18:35:22.962Z,8.40
2023-04-27T18:37:51.981Z,6.25
2023-04-27T18:40:21.314Z,6.80
2023-04-27T18:42:47.854Z,6.90
2023-04-27T18:45:15.752Z,7.60
2023-04-27T18:47:42.110Z,7.15
2023-04-27T18:50:08.877Z,22.58
2023-04-27T18:52:38.259Z,51.38
2023-04-27T18:55:05.321Z,33.90
2023-04-27T18:57:34.537Z,25.05
2023-04-27T19:00:00.835Z,15.13
2023-04-27T19:02:27.204Z,22.20
2023-04-27T19:05:13.584Z,21.38
2023-04-27T19:07:43.288Z,15.40
2023-04-27T19:10:10.720Z,10.55
2023-04-27T19:12:37.321Z,13.65
2023-04-27T19:15:04.113Z,12.55
2023-04-27T19:17:30.839Z,7.63
2023-04-27T19:19:57.255Z,8.95
2023-04-27T19:22:24.243Z,21.50
2023-04-27T19:24:50.557Z,11.65
2023-04-27T19:27:16.931Z,11.13
2023-04-27T19:29:54.325Z,9.52
2023-04-27T19:32:21.767Z,9.70
2023-04-27T19:34:48.522Z,7.18
2023-04-27T19:37:14.852Z,8.35
2023-04-27T19:39:41.217Z,9.13
2023-04-27T19:42:07.695Z,8.38
2023-04-27T19:44:34.004Z,7.05
2023-04-27T19:47:00.594Z,9.60
2023-04-27T19:49:33.443Z,7.00
2023-04-27T19:52:00.107Z,8.90
2023-04-27T19:54:26.756Z,8.85
2023-04-27T19:56:53.893Z,10.35
2023-04-27T19:59:20.346Z,10.68
2023-04-27T20:01:46.786Z,11.43
2023-04-27T20:04:19.099Z,13.55
2023-04-27T20:06:45.823Z,14.55
2023-04-27T20:09:12.176Z,10.00
2023-04-27T20:11:38.565Z,9.48
2023-04-27T20:14:04.858Z,8.70
2023-04-27T20:16:31.397Z,11.32
2023-04-27T20:18:57.813Z,7.68
2023-04-27T20:21:24.358Z,7.47
2023-04-27T20:23:50.654Z,7.28
2023-04-27T20:26:17.087Z,7.57
2023-04-27T20:28:43.425Z,7.65
2023-04-27T20:31:09.751Z,9.45
2023-04-27T20:33:36.085Z,7.07
2023-04-27T20:36:14.090Z,8.80
2023-04-27T20:38:43.525Z,5.75
2023-04-27T20:41:09.924Z,7.53
2023-04-27T20:43:36.225Z,7.75
2023-04-27T20:46:02.545Z,7.82
2023-04-27T20:48:28.869Z,7.47
2023-04-27T20:50:55.216Z,9.80
2023-04-27T20:53:21.514Z,8.38
2023-04-27T20:55:47.827Z,8.93
2023-04-27T20:58:14.132Z,7.18
2023-04-27T21:00:40.434Z,10.50
2023-04-27T21:03:06.953Z,11.90
2023-04-27T21:05:33.356Z,10.40
2023-04-27T21:07:59.667Z,11.77
2023-04-27T21:10:26.062Z,12.95
2023-04-27T21:12:52.459Z,13.65
2023-04-27T21:15:18.981Z,14.50
2023-04-27T21:17:45.461Z,11.25
2023-04-27T21:20:11.958Z,15.18
2023-04-27T21:22:38.297Z,12.20
2023-04-27T21:27:30.260Z,10.88
2023-04-27T21:29:58.093Z,10.30
2023-04-27T21:32:24.399Z,10.55
2023-04-27T21:34:50.698Z,10.93
2023-04-27T21:37:18.180Z,12.65
2023-04-27T21:39:44.494Z,11.32
2023-04-27T21:42:10.842Z,11.15
2023-04-27T21:44:37.162Z,9.88
2023-04-27T21:47:03.538Z,9.82
2023-04-27T21:49:29.827Z,8.70
2023-04-27T21:51:56.147Z,12.65
2023-04-27T21:54:22.481Z,9.20
2023-04-27T21:56:48.805Z,12.45
2023-04-27T21:59:15.110Z,10.55
2023-04-27T22:01:41.472Z,8.10
2023-04-27T22:04:07.996Z,9.93
2023-04-27T22:06:34.488Z,9.57
2023-04-27T22:09:00.938Z,11.18
2023-04-27T22:11:27.354Z,10.13
2023-04-27T22:13:53.632Z,8.52
2023-04-27T22:16:19.956Z,10.32
2023-04-27T22:18:46.296Z,7.80
2023-04-27T22:21:12.590Z,10.10
2023-04-27T22:23:39.050Z,7.47
2023-04-27T22:26:07.151Z,10.05
2023-04-27T22:28:35.064Z,9.00
2023-04-27T22:31:01.430Z,8.23
2023-04-27T22:33:27.786Z,8.02
2023-04-27T22:35:54.126Z,8.95
2023-04-27T22:38:20.499Z,7.60
2023-04-27T22:40:46.789Z,8.38
2023-04-27T22:43:13.087Z,6.60
2023-04-27T22:45:39.403Z,6.53
2023-04-27T22:48:05.981Z,7.75
2023-04-27T22:50:32.552Z,8.25
2023-04-27T22:52:58.863Z,7.53
2023-04-27T22:55:25.538Z,8.25
2023-04-27T22:57:51.944Z,8.02
2023-04-27T23:00:18.393Z,9.15
2023-04-27T23:02:44.883Z,7.88
2023-04-27T23:05:11.633Z,8.65
2023-04-27T23:07:38.814Z,6.78
2023-04-27T23:10:05.556Z,7.75
2023-04-27T23:12:32.214Z,6.82
2023-04-27T23:14:58.771Z,10.25
2023-04-27T23:17:25.341Z,6.82
2023-04-27T23:19:52.643Z,9.00
2023-04-27T23:22:18.947Z,7.30
2023-04-27T23:24:45.276Z,10.73
2023-04-27T23:27:11.588Z,6.90
2023-04-27T23:29:38.144Z,9.75
2023-04-27T23:34:30.115Z,8.33
2023-04-27T23:36:56.424Z,11.77
2023-04-27T23:39:22.739Z,9.63
2023-04-27T23:41:49.034Z,8.40
2023-04-27T23:44:15.486Z,11.30
2023-04-27T23:46:41.955Z,8.43
2023-04-27T23:49:08.310Z,8.68
2023-04-27T23:53:59.728Z,9.65
2023-04-27T23:56:26.066Z,8.68
2023-04-27T23:58:52.371Z,9.52
